Time;durP1;ratioP1;P1;durP2;ratioP2;P2;SDS_P1;SDS_P2;PMS_P1;PMS_P2;Temp;Humidity;BMP_temperature;BMP_pressure;BME280_temperature;BME280_humidity;BME280_pressure;Samples;Min_cycle;Max_cycle;Signal;HPM_P1;HPM_P2
2021/06/04 00:00:50;;;;;;;546.12;171.75;;;;;;;11.96;100.00;100052.93;1637171;87;21359;-81
2021/06/04 00:03:57;;;;;;;511.02;218.82;;;;;;;11.96;100.00;100051.56;1636055;87;21196;-82
2021/06/04 00:07:02;;;;;;;476.82;144.40;;;;;;;11.97;100.00;100050.52;1634515;87;21215;-82
2021/06/04 00:10:08;;;;;;;485.45;152.15;;;;;;;11.99;100.00;100049.78;1633686;88;21188;-81
2021/06/04 00:13:36;;;;;;;630.63;201.80;;;;;;;12.01;100.00;100051.83;1633777;88;21334;-82
2021/06/04 00:16:46;;;;;;;501.15;169.47;;;;;;;12.04;100.00;100053.32;1633802;88;21195;-82
2021/06/04 00:19:51;;;;;;;720.42;234.62;;;;;;;12.08;100.00;100051.05;1634951;88;21917;-81
2021/06/04 00:22:57;;;;;;;555.22;182.90;;;;;;;12.10;100.00;100050.36;1633839;88;21367;-81
2021/06/04 00:26:03;;;;;;;515.55;172.10;;;;;;;12.10;100.00;100041.61;1635129;86;21253;-82
2021/06/04 00:29:09;;;;;;;615.62;196.10;;;;;;;12.12;100.00;100047.73;1633784;88;21206;-82
2021/06/04 00:32:16;;;;;;;497.43;134.52;;;;;;;12.15;100.00;100049.26;1634944;88;21373;-81
2021/06/04 00:35:22;;;;;;;589.85;167.22;;;;;;;12.16;100.00;100046.31;1634910;88;21244;-82
2021/06/04 00:38:27;;;;;;;533.87;164.82;;;;;;;12.21;100.00;100045.73;1634985;88;21303;-82
2021/06/04 00:41:37;;;;;;;570.52;207.47;;;;;;;12.20;100.00;100055.01;1634925;88;22482;-82
2021/06/04 00:44:44;;;;;;;607.73;189.93;;;;;;;12.22;100.00;100048.80;1633794;87;21252;-84
2021/06/04 00:47:51;;;;;;;1007.43;274.65;;;;;;;12.23;100.00;100050.48;1633850;88;21322;-82
2021/06/04 00:51:22;;;;;;;552.75;239.55;;;;;;;12.25;100.00;100051.16;1634474;88;21862;-82
2021/06/04 00:54:28;;;;;;;453.05;198.95;;;;;;;12.23;100.00;100054.60;1633797;88;21374;-82
2021/06/04 00:57:35;;;;;;;538.80;191.98;;;;;;;12.24;100.00;100055.80;1633813;88;21117;-82
2021/06/04 01:00:48;;;;;;;751.58;238.20;;;;;;;12.25;100.00;100058.02;1635101;88;21319;-82
2021/06/04 01:04:05;;;;;;;641.05;197.43;;;;;;;12.26;100.00;100054.23;1634396;88;21208;-82
2021/06/04 01:07:43;;;;;;;668.90;189.20;;;;;;;12.27;100.00;100049.06;1634751;86;21394;-82
2021/06/04 01:11:21;;;;;;;604.83;235.08;;;;;;;12.27;100.00;100051.80;1635867;87;21326;-82
2021/06/04 01:15:12;;;;;;;705.03;257.55;;;;;;;12.27;100.00;100057.29;1636070;87;21232;-82
2021/06/04 01:18:37;;;;;;;1228.28;412.65;;;;;;;12.27;100.00;100061.41;1635964;87;21184;-81
2021/06/04 01:21:59;;;;;;;696.37;234.98;;;;;;;12.27;100.00;100043.05;1636271;87;21888;-82
2021/06/04 01:25:28;;;;;;;704.23;255.95;;;;;;;12.27;100.00;100046.32;1635818;87;21192;-82
2021/06/04 01:28:48;;;;;;;714.92;341.63;;;;;;;12.25;100.00;100047.05;1637157;87;21326;-81
2021/06/04 01:32:04;;;;;;;1215.25;370.37;;;;;;;12.23;100.00;100054.60;1636016;87;21176;-81
2021/06/04 01:35:18;;;;;;;1125.83;367.55;;;;;;;12.21;100.00;100047.95;1637412;87;21861;-81
2021/06/04 01:38:27;;;;;;;885.60;278.70;;;;;;;12.20;100.00;100055.01;1637339;87;21207;-81
2021/06/04 01:41:35;;;;;;;549.10;194.57;;;;;;;12.18;100.00;100057.08;1635850;86;21211;-82
2021/06/04 01:44:50;;;;;;;424.58;191.70;;;;;;;12.20;100.00;100053.64;1636192;87;21984;-83
2021/06/04 01:48:06;;;;;;;901.22;435.02;;;;;;;12.21;100.00;100054.80;1635944;87;21755;-83
2021/06/04 01:51:20;;;;;;;746.55;211.22;;;;;;;12.22;100.00;100055.66;1636907;87;21940;-83
2021/06/04 01:54:41;;;;;;;670.40;240.85;;;;;;;12.23;100.00;100051.86;1636316;87;21425;-83
2021/06/04 01:57:56;;;;;;;661.45;245.73;;;;;;;12.25;100.00;100055.28;1637266;87;21889;-82
2021/06/04 02:01:09;;;;;;;340.35;100.72;;;;;;;12.26;100.00;100050.11;1637183;87;21319;-82
2021/06/04 02:04:16;;;;;;;496.05;147.65;;;;;;;12.29;100.00;100052.48;1636026;86;21195;-83
2021/06/04 02:07:27;;;;;;;647.98;183.85;;;;;;;12.30;100.00;100055.55;1636470;87;21940;-82
2021/06/04 02:10:38;;;;;;;399.25;144.40;;;;;;;12.31;100.00;100064.09;1639649;87;21570;-83
2021/06/04 02:13:49;;;;;;;607.38;222.73;;;;;;;12.34;100.00;100062.87;1639682;87;21390;-83
2021/06/04 02:17:10;;;;;;;522.95;192.77;;;;;;;12.37;100.00;100056.97;1639501;87;21354;-83
2021/06/04 02:20:41;;;;;;;533.20;223.82;;;;;;;12.39;100.00;100063.98;1630752;87;21306;-82
2021/06/04 02:24:00;;;;;;;694.28;233.68;;;;;;;12.42;100.00;100064.98;1638138;87;21239;-83
2021/06/04 02:27:16;;;;;;;917.13;330.50;;;;;;;12.44;100.00;100066.98;1638121;86;21243;-83
2021/06/04 02:30:35;;;;;;;610.45;199.82;;;;;;;12.44;100.00;100063.40;1639672;87;21307;-82
2021/06/04 02:33:53;;;;;;;797.02;274.02;;;;;;;12.40;100.00;100063.45;1639597;87;21302;-83
2021/06/04 02:37:27;;;;;;;638.80;239.95;;;;;;;12.39;100.00;100069.47;1639077;87;21223;-83
2021/06/04 02:40:40;;;;;;;831.87;398.98;;;;;;;12.37;100.00;100066.05;1639549;87;21362;-82
2021/06/04 02:43:53;;;;;;;590.55;263.75;;;;;;;12.37;100.00;100061.09;1639289;87;21806;-83
2021/06/04 02:47:19;;;;;;;825.40;288.30;;;;;;;12.37;100.00;100077.02;1639833;87;21196;-82
2021/06/04 02:50:50;;;;;;;705.17;226.95;;;;;;;12.40;100.00;100065.67;1621634;87;21168;-82
2021/06/04 02:54:01;;;;;;;815.27;313.55;;;;;;;12.42;100.00;100068.21;1639423;87;21302;-83
2021/06/04 02:57:14;;;;;;;476.18;266.65;;;;;;;12.42;100.00;100073.70;1639494;87;21315;-83
2021/06/04 03:00:41;;;;;;;1355.70;370.27;;;;;;;12.39;100.00;100076.33;1639485;87;21310;-83
2021/06/04 03:03:51;;;;;;;709.63;197.40;;;;;;;12.38;100.00;100071.05;1639402;87;21314;-82
2021/06/04 03:07:01;;;;;;;715.80;215.28;;;;;;;12.40;100.00;100071.16;1637554;87;21393;-81
2021/06/04 03:10:10;;;;;;;;;;;;;;;12.44;100.00;100075.22;1636742;86;21255;-81
2021/06/04 03:13:20;;;;;;;818.45;314.60;;;;;;;12.46;100.00;100069.00;1634561;88;20396;-81
2021/06/04 03:16:30;;;;;;;690.15;292.95;;;;;;;12.50;100.00;100062.09;1634471;88;21386;-82
2021/06/04 03:19:36;;;;;;;789.20;278.45;;;;;;;12.52;100.00;100066.88;1652922;86;21203;-81
2021/06/04 03:22:45;;;;;;;1242.73;402.62;;;;;;;12.59;100.00;100070.20;1654006;86;22587;-82
2021/06/04 03:25:56;;;;;;;735.58;270.67;;;;;;;12.59;100.00;100075.16;1641872;86;21810;-82
2021/06/04 03:29:06;;;;;;;615.08;178.45;;;;;;;12.63;100.00;100068.24;1635359;87;21327;-82
2021/06/04 03:32:17;;;;;;;660.35;279.43;;;;;;;12.68;100.00;100069.03;1635721;88;21401;-82
2021/06/04 03:35:23;;;;;;;707.17;274.23;;;;;;;12.71;100.00;100067.27;1646884;86;21391;-81
2021/06/04 03:38:28;;;;;;;604.62;212.40;;;;;;;12.75;100.00;100074.05;1644257;86;21361;-82
2021/06/04 03:41:39;;;;;;;731.35;293.10;;;;;;;12.77;100.00;100079.67;1650628;86;21358;-82
2021/06/04 03:44:48;;;;;;;713.00;242.00;;;;;;;12.81;100.00;100077.40;1628186;87;21258;-82
2021/06/04 03:47:56;;;;;;;564.87;203.35;;;;;;;12.81;100.00;100077.40;1612010;89;21234;-82
2021/06/04 03:51:04;;;;;;;659.65;230.83;;;;;;;12.83;100.00;100075.81;1632749;87;21330;-83
2021/06/04 03:54:09;;;;;;;707.98;256.05;;;;;;;12.84;100.00;100071.49;1630215;87;21907;-82
2021/06/04 03:57:17;;;;;;;830.93;274.48;;;;;;;12.88;100.00;100067.31;1630850;87;21256;-82
2021/06/04 04:00:36;;;;;;;553.17;253.92;;;;;;;12.89;100.00;100068.16;1622308;87;21388;-83
2021/06/04 04:03:41;;;;;;;957.40;372.35;;;;;;;12.92;100.00;100069.14;1625667;87;21862;-82
2021/06/04 04:06:46;;;;;;;745.33;262.80;;;;;;;12.95;100.00;100066.02;1621324;87;21697;-82
2021/06/04 04:09:51;;;;;;;834.80;293.93;;;;;;;12.96;100.00;100072.67;1641139;85;21341;-82
2021/06/04 04:12:56;;;;;;;797.13;282.02;;;;;;;12.95;100.00;100075.09;1687391;85;21260;-83
2021/06/04 04:16:03;;;;;;;738.92;331.50;;;;;;;12.96;100.00;100069.92;1688417;85;21342;-82
2021/06/04 04:19:09;;;;;;;756.08;328.75;;;;;;;13.00;100.00;100071.23;1663462;86;21334;-82
2021/06/04 04:22:16;;;;;;;711.80;346.90;;;;;;;13.04;100.00;100071.70;1687278;85;21231;-82
2021/06/04 04:25:22;;;;;;;1403.20;420.68;;;;;;;13.04;100.00;100083.52;1682335;85;21294;-82
2021/06/04 04:28:35;;;;;;;675.35;267.98;;;;;;;13.02;100.00;100085.60;1687967;83;21882;-82
2021/06/04 04:31:41;;;;;;;1999.90;543.17;;;;;;;12.99;100.00;100090.13;1689378;85;21306;-82
2021/06/04 04:34:48;;;;;;;804.80;366.63;;;;;;;12.97;100.00;100094.95;1683128;85;21350;-82
2021/06/04 04:37:54;;;;;;;1468.97;666.00;;;;;;;12.96;100.00;100088.30;1683873;85;21310;-82
2021/06/04 04:41:02;;;;;;;1999.90;522.87;;;;;;;12.95;100.00;100094.31;1687763;85;21302;-82
2021/06/04 04:44:08;;;;;;;844.73;298.32;;;;;;;12.90;100.00;100098.17;1672085;85;21739;-82
2021/06/04 04:47:17;;;;;;;1984.98;567.92;;;;;;;12.88;100.00;100086.52;1655466;85;21949;-82
2021/06/04 04:50:26;;;;;;;641.05;265.00;;;;;;;12.90;100.00;100086.35;1683030;85;21259;-82
2021/06/04 04:53:32;;;;;;;698.95;230.18;;;;;;;12.92;100.00;100091.95;1654642;85;22792;-81
2021/06/04 04:56:40;;;;;;;1529.98;458.77;;;;;;;13.00;100.00;100096.47;1676866;84;22441;-82
2021/06/04 04:59:45;;;;;;;779.58;301.60;;;;;;;13.05;100.00;100098.95;1615576;88;21367;-79
2021/06/04 05:02:50;;;;;;;1184.18;393.20;;;;;;;13.07;100.00;100100.63;1684609;84;21325;-80
2021/06/04 05:05:57;;;;;;;651.27;186.22;;;;;;;13.11;100.00;100108.81;1676166;85;21924;-81
2021/06/04 05:09:03;;;;;;;1485.03;423.47;;;;;;;13.13;100.00;100107.58;1673431;84;21250;-81
2021/06/04 05:12:09;;;;;;;780.73;343.12;;;;;;;13.19;100.00;100101.81;1641923;86;21891;-81
2021/06/04 05:15:20;;;;;;;818.70;275.87;;;;;;;13.23;100.00;100106.74;1641807;85;21244;-80
2021/06/04 05:18:24;;;;;;;910.95;412.05;;;;;;;13.29;100.00;100100.45;1644033;85;21208;-81
2021/06/04 05:21:29;;;;;;;1999.90;697.67;;;;;;;13.35;100.00;100098.80;1647752;86;21239;-81
2021/06/04 05:24:34;;;;;;;958.73;373.85;;;;;;;13.38;100.00;100109.39;1643724;85;21361;-81
2021/06/04 05:27:39;;;;;;;678.67;312.65;;;;;;;13.35;100.00;100113.90;1645133;86;21387;-81
2021/06/04 05:30:51;;;;;;;1999.90;575.22;;;;;;;13.37;100.00;100117.31;1642270;86;21230;-80
2021/06/04 05:33:58;;;;;;;1183.85;482.02;;;;;;;13.41;100.00;100126.86;1641596;86;21203;-80
2021/06/04 05:37:03;;;;;;;901.90;345.07;;;;;;;13.41;100.00;100133.73;1648005;85;21360;-81
2021/06/04 05:40:10;;;;;;;1059.55;353.73;;;;;;;13.36;100.00;100125.23;1649251;86;21231;-81
2021/06/04 05:43:24;;;;;;;939.58;386.30;;;;;;;13.37;100.00;100122.81;1645767;86;21219;-81
2021/06/04 05:46:34;;;;;;;1999.90;694.23;;;;;;;13.36;100.00;100122.49;1646613;86;21894;-80
2021/06/04 05:49:40;;;;;;;1366.43;423.07;;;;;;;13.35;100.00;100125.42;1645216;86;21873;-80
2021/06/04 05:52:47;;;;;;;1013.02;467.25;;;;;;;13.39;100.00;100127.56;1641242;86;21977;-79
2021/06/04 05:55:54;;;;;;;1488.40;502.07;;;;;;;13.43;100.00;100130.25;1645776;85;21332;-82
2021/06/04 05:58:59;;;;;;;690.83;222.58;;;;;;;13.46;100.00;100131.76;1645501;86;21269;-81
2021/06/04 06:02:06;;;;;;;655.77;293.52;;;;;;;13.48;100.00;100136.52;1639171;86;21237;-81
2021/06/04 06:05:12;;;;;;;722.23;251.10;;;;;;;13.50;100.00;100142.65;1639654;85;21335;-81
2021/06/04 06:08:19;;;;;;;1576.40;332.10;;;;;;;13.53;100.00;100145.02;1639983;85;21259;-81
2021/06/04 06:11:26;;;;;;;905.87;351.95;;;;;;;13.57;100.00;100133.95;1640437;86;21264;-80
2021/06/04 06:14:31;;;;;;;1530.48;475.55;;;;;;;13.58;100.00;100141.66;1663604;85;21974;-80
2021/06/04 06:17:37;;;;;;;758.77;377.70;;;;;;;13.60;100.00;100143.67;1670483;84;21259;-80
2021/06/04 06:20:46;;;;;;;565.40;265.62;;;;;;;13.67;100.00;100148.18;1668825;84;21382;-81
2021/06/04 06:23:51;;;;;;;1347.45;450.90;;;;;;;13.76;100.00;100143.38;1670334;85;21326;-81
2021/06/04 06:26:59;;;;;;;953.55;381.00;;;;;;;13.85;100.00;100164.17;1667339;84;21918;-80
2021/06/04 06:30:05;;;;;;;952.58;372.65;;;;;;;13.83;100.00;100145.64;1668222;85;21311;-80
2021/06/04 06:33:11;;;;;;;1999.90;701.67;;;;;;;13.82;100.00;100150.81;1663330;84;21947;-79
2021/06/04 06:36:26;;;;;;;851.28;318.55;;;;;;;13.85;100.00;100153.17;1665458;85;21361;-79
2021/06/04 06:39:56;;;;;;;1089.38;379.18;;;;;;;13.92;100.00;100147.70;1671311;85;21220;-79
2021/06/04 06:43:02;;;;;;;1056.53;500.27;;;;;;;14.00;100.00;100143.42;1671956;84;21966;-79
2021/06/04 06:46:07;;;;;;;1999.90;721.25;;;;;;;14.07;100.00;100149.83;1674090;84;21256;-79
2021/06/04 06:49:13;;;;;;;701.35;285.50;;;;;;;14.16;99.82;100143.61;1649069;85;21367;-79
2021/06/04 06:52:19;;;;;;;868.88;372.80;;;;;;;14.24;99.57;100147.57;1678739;84;22242;-79
2021/06/04 06:55:25;;;;;;;1356.53;383.02;;;;;;;14.41;99.62;100148.93;1681919;83;21228;-77
2021/06/04 06:58:30;;;;;;;1531.75;576.17;;;;;;;14.59;99.49;100160.79;1678379;84;21291;-79
2021/06/04 07:01:36;;;;;;;1109.78;552.23;;;;;;;14.75;97.66;100155.43;1681449;84;21294;-79
2021/06/04 07:04:42;;;;;;;1121.63;566.25;;;;;;;14.84;96.05;100159.69;1640758;85;21930;-79
2021/06/04 07:07:48;;;;;;;1259.00;561.17;;;;;;;14.95;95.82;100167.34;1674803;84;21306;-79
2021/06/04 07:10:54;;;;;;;1999.90;840.98;;;;;;;15.05;94.66;100161.42;1676062;84;21586;-79
2021/06/04 07:14:01;;;;;;;1999.90;956.78;;;;;;;15.07;93.40;100164.83;1651499;85;21186;-80
2021/06/04 07:17:07;;;;;;;1456.47;723.28;;;;;;;15.04;93.01;100176.26;1681292;84;21303;-79
2021/06/04 07:20:15;;;;;;;1777.53;858.75;;;;;;;15.02;93.22;100161.86;1676790;84;21235;-79
2021/06/04 07:23:20;;;;;;;1915.70;957.25;;;;;;;15.01;93.29;100163.77;1679411;84;21676;-79
2021/06/04 07:26:25;;;;;;;1785.43;790.38;;;;;;;15.02;92.70;100163.23;1678940;84;21830;-88
2021/06/04 07:29:37;;;;;;;1895.13;885.88;;;;;;;15.05;93.08;100166.40;1684078;83;21356;-90
2021/06/04 07:33:13;;;;;;;1999.90;858.87;;;;;;;15.11;92.31;100172.16;1672812;84;21215;-80
2021/06/04 07:36:26;;;;;;;1999.90;989.75;;;;;;;15.12;92.46;100168.34;1675420;84;21974;-79
2021/06/04 07:39:38;;;;;;;1999.90;798.88;;;;;;;15.07;91.90;100172.56;1680550;83;21233;-80
2021/06/04 07:42:42;;;;;;;1764.70;853.97;;;;;;;15.00;92.25;100167.55;1678121;84;21310;-79
2021/06/04 07:45:51;;;;;;;1705.85;815.98;;;;;;;15.00;92.82;100176.35;1672048;84;21327;-79
2021/06/04 07:48:56;;;;;;;1474.50;814.55;;;;;;;15.02;92.50;100172.87;1672937;84;21303;-79
2021/06/04 07:52:03;;;;;;;1860.35;903.27;;;;;;;15.15;92.94;100168.78;1670406;84;21193;-88
2021/06/04 07:55:07;;;;;;;1989.75;962.88;;;;;;;15.28;92.27;100172.05;1673587;84;22254;-88
2021/06/04 07:58:12;;;;;;;1999.90;970.08;;;;;;;15.32;90.55;100174.72;1671681;84;21613;-90
2021/06/04 08:01:17;;;;;;;1999.90;997.60;;;;;;;15.37;89.71;100180.44;1668462;84;21314;-88
2021/06/04 08:04:22;;;;;;;1962.97;878.27;;;;;;;15.36;89.01;100181.50;1672121;83;21305;-88
2021/06/04 08:07:28;;;;;;;1999.90;996.70;;;;;;;15.31;89.31;100186.27;1667936;84;21306;-88
2021/06/04 08:10:35;;;;;;;1999.90;975.90;;;;;;;15.30;89.47;100183.73;1668707;84;21322;-88
2021/06/04 08:13:45;;;;;;;1999.90;999.90;;;;;;;15.33;88.97;100188.80;1671495;84;21328;-89
2021/06/04 08:16:50;;;;;;;1540.72;762.77;;;;;;;15.43;89.20;100187.89;1666355;84;21263;-88
2021/06/04 08:19:56;;;;;;;1960.55;935.40;;;;;;;15.56;89.44;100178.22;1667775;84;21335;-79
2021/06/04 08:23:05;;;;;;;1999.90;999.90;;;;;;;15.75;89.46;100182.59;1666872;84;21347;-79
2021/06/04 08:26:11;;;;;;;1999.90;996.03;;;;;;;15.88;86.66;100191.40;1674706;83;21919;-79
2021/06/04 08:29:17;;;;;;;1999.90;990.55;;;;;;;15.91;85.39;100186.84;1668607;84;21955;-79
2021/06/04 08:32:24;;;;;;;1999.90;992.10;;;;;;;15.85;85.60;100195.41;1638371;85;21308;-79
2021/06/04 08:35:31;;;;;;;1999.90;999.90;;;;;;;15.74;85.94;100193.31;1639932;85;22417;-79
2021/06/04 08:38:40;;;;;;;1897.33;926.92;;;;;;;15.60;86.15;100196.03;1664650;84;21373;-79
2021/06/04 08:41:50;;;;;;;1999.90;999.90;;;;;;;15.51;87.17;100195.08;1676489;84;21331;-79
2021/06/04 08:45:08;;;;;;;1999.90;999.90;;;;;;;15.45;86.83;100199.53;1674625;83;22215;-80
2021/06/04 08:48:44;;;;;;;1999.90;999.90;;;;;;;15.32;86.74;100206.41;1648568;84;21914;-80
2021/06/04 08:52:17;;;;;;;1999.90;989.65;;;;;;;15.23;86.88;100206.28;1667975;84;21241;-79
2021/06/04 08:55:47;;;;;;;1991.25;878.08;;;;;;;15.23;88.23;100201.61;1665625;84;21305;-80
2021/06/04 08:59:16;;;;;;;1999.90;999.90;;;;;;;15.36;88.46;100202.17;1670596;84;21310;-79
2021/06/04 09:02:28;;;;;;;1909.98;846.15;;;;;;;15.57;88.03;100203.37;1669217;84;21742;-80
2021/06/04 09:05:45;;;;;;;1999.90;999.90;;;;;;;15.77;87.26;100206.69;1668286;84;21275;-78
2021/06/04 09:08:50;;;;;;;1999.90;999.90;;;;;;;15.81;85.58;100216.23;1672336;83;21906;-80
2021/06/04 09:11:59;;;;;;;1999.90;999.90;;;;;;;15.74;85.94;100201.05;1670967;84;21185;-80
2021/06/04 09:15:07;;;;;;;1999.90;999.90;;;;;;;15.71;86.67;100208.89;1666344;83;21226;-79
2021/06/04 09:18:25;;;;;;;1999.90;964.27;;;;;;;15.62;86.50;100212.89;1644366;86;21854;-79
2021/06/04 09:21:36;;;;;;;1999.90;999.90;;;;;;;15.56;86.78;100210.45;1647615;85;21278;-79
2021/06/04 09:24:50;;;;;;;1999.90;999.90;;;;;;;15.48;86.58;100215.66;1680322;83;22220;-79
2021/06/04 09:27:57;;;;;;;1999.90;999.90;;;;;;;15.42;87.68;100210.13;1652365;85;22446;-79
2021/06/04 09:31:09;;;;;;;1999.90;980.30;;;;;;;15.32;87.28;100208.62;1641703;86;21824;-79
2021/06/04 09:34:30;;;;;;;1999.90;930.23;;;;;;;15.17;87.55;100218.14;1654761;84;21567;-80
2021/06/04 09:37:38;;;;;;;1999.90;839.05;;;;;;;15.07;88.54;100211.66;1646245;86;21185;-81
2021/06/04 09:40:43;;;;;;;1624.50;777.85;;;;;;;15.03;89.07;100220.02;1645558;85;21205;-81
2021/06/04 09:43:48;;;;;;;1463.75;600.45;;;;;;;15.02;89.69;100215.04;1645661;85;21880;-80
2021/06/04 09:47:20;;;;;;;1999.90;946.67;;;;;;;15.07;90.19;100211.13;1650194;85;21318;-80
2021/06/04 09:50:41;;;;;;;1276.42;602.50;;;;;;;15.23;89.90;100221.44;1644925;85;21204;-80
2021/06/04 09:53:46;;;;;;;1151.08;581.05;;;;;;;15.44;89.42;100209.41;1651385;83;21534;-89
2021/06/04 09:56:45;;;;;;;1888.80;937.57;;;;;;;15.70;89.45;100206.67;1658716;85;21702;-89
2021/06/04 09:59:44;;;;;;;1999.90;893.85;;;;;;;16.05;87.72;100211.43;1619950;85;21864;-89
2021/06/04 10:02:50;;;;;;;1999.90;999.90;;;;;;;16.37;86.46;100211.55;1649878;85;21359;-88
2021/06/04 10:06:02;;;;;;;1999.90;999.90;;;;;;;16.73;84.24;100217.95;1616706;85;21348;-88
2021/06/04 10:09:13;;;;;;;1999.90;999.90;;;;;;;16.98;82.19;100206.98;1630537;87;21909;-79
2021/06/04 10:12:26;;;;;;;;;;;;;;;17.16;80.58;100220.61;1657865;85;22188;-79
2021/06/04 10:15:38;;;;;;;1999.90;999.90;;;;;;;17.25;80.13;100209.60;1621624;87;20371;-78
2021/06/04 10:18:45;;;;;;;1999.90;999.90;;;;;;;17.23;80.43;100215.36;1626516;87;22272;-79
2021/06/04 10:21:50;;;;;;;1999.90;999.90;;;;;;;17.24;80.29;100207.38;1618586;87;21184;-79
2021/06/04 10:25:11;;;;;;;1999.90;999.90;;;;;;;17.30;78.88;100205.64;1646016;85;21294;-79
2021/06/04 10:28:36;;;;;;;1999.90;999.90;;;;;;;17.40;78.80;100214.28;1644833;85;21301;-80
2021/06/04 10:31:54;;;;;;;1999.90;999.90;;;;;;;17.53;78.65;100211.42;1599563;87;21314;-80
2021/06/04 10:35:20;;;;;;;1999.90;999.90;;;;;;;17.68;78.22;100216.63;1648056;85;21352;-80
2021/06/04 10:38:43;;;;;;;1999.90;999.90;;;;;;;17.90;78.79;100215.73;1640525;85;21586;-78
2021/06/04 10:42:20;;;;;;;1999.90;999.90;;;;;;;18.08;77.19;100222.70;1645950;85;22308;-79
2021/06/04 10:45:44;;;;;;;1999.90;999.90;;;;;;;18.15;75.64;100218.47;1662165;84;21363;-79
2021/06/04 10:49:15;;;;;;;1999.90;999.90;;;;;;;18.09;75.84;100205.55;1660343;85;21341;-79
2021/06/04 10:52:49;;;;;;;1999.90;999.90;;;;;;;18.24;76.83;100213.48;1657434;85;21357;-79
2021/06/04 10:56:17;;;;;;;1999.90;999.90;;;;;;;18.40;74.22;100211.52;1693076;84;21363;-79
2021/06/04 10:59:45;;;;;;;1999.90;999.90;;;;;;;18.49;73.51;100214.80;1698929;84;21538;-88
2021/06/04 11:03:11;;;;;;;1999.90;999.90;;;;;;;18.56;73.72;100210.89;1687532;84;21145;-89
2021/06/04 11:06:20;;;;;;;1999.90;999.90;;;;;;;18.50;71.61;100209.05;1663308;85;21240;-89
2021/06/04 11:09:41;;;;;;;1999.90;999.90;;;;;;;18.43;71.83;100226.27;1676404;84;21318;-89
2021/06/04 11:13:36;;;;;;;1999.90;999.90;;;;;;;18.40;72.47;100221.21;1680304;84;21295;-88
2021/06/04 11:17:07;;;;;;;1999.90;999.90;;;;;;;18.43;74.11;100222.66;1650044;85;22165;-78
2021/06/04 11:20:31;;;;;;;1999.90;999.90;;;;;;;18.50;73.25;100220.13;1684185;84;21302;-78
2021/06/04 11:23:54;;;;;;;1999.90;999.90;;;;;;;18.63;73.87;100221.38;1682507;84;21359;-78
2021/06/04 11:27:03;;;;;;;1999.90;999.90;;;;;;;18.64;73.32;100219.45;1686111;84;21213;-79
2021/06/04 11:30:09;;;;;;;1999.90;999.90;;;;;;;18.66;74.32;100218.66;1680575;84;21726;-79
2021/06/04 11:33:28;;;;;;;1999.90;999.90;;;;;;;18.71;73.22;100220.23;1677614;84;21840;-79
2021/06/04 11:36:34;;;;;;;1999.90;999.90;;;;;;;18.72;73.52;100225.23;1681239;84;21684;-79
2021/06/04 11:39:42;;;;;;;1999.90;999.90;;;;;;;18.78;72.09;100222.94;1682318;84;21332;-79
2021/06/04 11:42:58;;;;;;;1999.90;999.90;;;;;;;18.77;70.40;100222.09;1675540;84;21173;-80
2021/06/04 11:46:26;;;;;;;1999.90;999.90;;;;;;;18.70;70.11;100216.31;1660971;85;21951;-79
2021/06/04 11:49:31;;;;;;;1999.90;999.90;;;;;;;18.64;70.76;100220.83;1679996;84;21976;-79
2021/06/04 11:52:51;;;;;;;1999.90;999.90;;;;;;;18.70;70.62;100228.78;1677616;84;21181;-80
2021/06/04 11:56:00;;;;;;;1999.90;999.90;;;;;;;18.61;68.84;100226.28;1677826;84;21790;-79
2021/06/04 11:59:05;;;;;;;1999.90;999.90;;;;;;;18.49;70.22;100225.38;1644847;87;21307;-79
2021/06/04 12:02:12;;;;;;;1999.90;999.90;;;;;;;18.47;71.22;100222.52;1681767;84;21894;-79
2021/06/04 12:05:30;;;;;;;1999.90;999.90;;;;;;;18.42;70.25;100227.36;1657451;85;21229;-80
2021/06/04 12:08:42;;;;;;;1999.90;999.90;;;;;;;18.33;71.04;100226.80;1652908;86;21179;-81
2021/06/04 12:11:47;;;;;;;1999.90;999.90;;;;;;;18.25;72.72;100227.09;1676611;84;21302;-79
2021/06/04 12:15:10;;;;;;;1999.90;999.90;;;;;;;18.21;71.61;100233.31;1657157;85;21350;-79
2021/06/04 12:18:38;;;;;;;1999.90;999.90;;;;;;;18.11;71.93;100238.86;1680919;84;21241;-78
2021/06/04 12:21:52;;;;;;;1999.90;999.90;;;;;;;17.99;71.56;100244.81;1672750;84;21341;-89
2021/06/04 12:25:11;;;;;;;1999.90;999.90;;;;;;;17.85;72.30;100239.09;1684632;85;21330;-88
2021/06/04 12:28:45;;;;;;;1999.90;999.90;;;;;;;17.74;73.56;100239.83;1680162;84;21363;-87
2021/06/04 12:32:12;;;;;;;1999.90;999.90;;;;;;;17.75;73.74;100245.66;1675913;84;21374;-86
2021/06/04 12:35:20;;;;;;;1999.90;999.90;;;;;;;17.77;74.04;100249.04;1674884;84;21287;-78
2021/06/04 12:38:37;;;;;;;1999.90;999.90;;;;;;;17.81;74.94;100253.05;1676431;84;21576;-79
2021/06/04 12:41:42;;;;;;;1999.90;999.90;;;;;;;17.91;75.33;100248.40;1669840;86;21216;-80
2021/06/04 12:44:49;;;;;;;1999.90;999.90;;;;;;;17.98;74.91;100254.73;1682190;84;21602;-80
2021/06/04 12:48:21;;;;;;;1999.90;999.90;;;;;;;18.01;74.95;100252.34;1641933;87;21744;-79
2021/06/04 12:51:28;;;;;;;1999.90;999.90;;;;;;;18.06;74.87;100251.66;1639390;87;21334;-79
2021/06/04 12:54:34;;;;;;;1999.90;999.90;;;;;;;18.07;75.10;100252.84;1656071;83;21202;-79
2021/06/04 12:57:40;;;;;;;1999.90;999.90;;;;;;;18.13;75.40;100247.77;1687756;85;21227;-79
2021/06/04 13:00:45;;;;;;;1999.90;999.90;;;;;;;18.20;74.83;100251.84;1674921;83;21235;-79
2021/06/04 13:04:03;;;;;;;1999.90;999.90;;;;;;;18.27;74.56;100261.48;1668534;84;21203;-79
2021/06/04 13:07:07;;;;;;;1999.90;999.90;;;;;;;18.30;73.33;100255.48;1641668;86;21198;-79
2021/06/04 13:10:24;;;;;;;1999.90;999.90;;;;;;;18.32;73.54;100255.57;1682741;83;21800;-79
2021/06/04 13:13:43;;;;;;;1999.90;999.90;;;;;;;18.28;74.26;100253.48;1674350;85;21288;-80
2021/06/04 13:16:44;;;;;;;1999.90;999.90;;;;;;;18.29;74.28;100250.48;1655971;86;21360;-80
2021/06/04 13:19:49;;;;;;;1999.90;999.90;;;;;;;18.28;74.57;100242.41;1655328;86;21183;-80
2021/06/04 13:22:56;;;;;;;1999.90;999.90;;;;;;;18.31;74.03;100242.81;1665001;86;21831;-80
2021/06/04 13:26:28;;;;;;;1999.90;999.90;;;;;;;18.34;72.90;100249.25;1666155;84;21342;-79
2021/06/04 13:29:53;;;;;;;1999.90;999.90;;;;;;;18.31;73.12;100243.35;1667642;86;21292;-89
2021/06/04 13:33:02;;;;;;;1999.90;999.90;;;;;;;18.24;72.41;100247.55;1667583;83;21873;-86
2021/06/04 13:36:06;;;;;;;;;;;;;;;18.17;73.33;100247.33;1676342;84;21312;-88
2021/06/04 13:39:20;;;;;;;1999.90;999.90;;;;;;;18.21;73.89;100256.84;1640867;86;20661;-80
2021/06/04 13:42:33;;;;;;;1999.90;999.90;;;;;;;18.21;73.18;100251.30;1682111;84;21319;-87
2021/06/04 13:45:51;;;;;;;1999.90;999.90;;;;;;;18.20;73.62;100250.47;1698695;84;21350;-80
2021/06/04 13:49:10;;;;;;;1999.90;999.90;;;;;;;18.24;73.91;100256.40;1693873;84;21446;-80
2021/06/04 13:52:23;;;;;;;1999.90;999.90;;;;;;;18.21;74.18;100250.80;1693034;85;21308;-80
2021/06/04 13:55:28;;;;;;;1999.90;995.45;;;;;;;18.18;74.53;100257.31;1692834;85;21926;-80
2021/06/04 13:58:34;;;;;;;1999.90;999.90;;;;;;;18.12;74.78;100247.47;1692812;85;21744;-80
2021/06/04 14:01:39;;;;;;;1999.90;996.60;;;;;;;18.08;75.23;100243.45;1692927;85;21331;-80
2021/06/04 14:04:54;;;;;;;1999.90;994.00;;;;;;;18.03;75.42;100256.29;1692330;85;21253;-80